Time;durP1;ratioP1;P1;durP2;ratioP2;P2;SDS_P1;SDS_P2;PMS_P1;PMS_P2;Temp;Humidity;BMP_temperature;BMP_pressure;BME280_temperature;BME280_humidity;BME280_pressure;Samples;Min_cycle;Max_cycle;Signal;HPM_P1;HPM_P2
2022/01/30 00:00:32;;;;;;;5.43;2.43;;;;;;;8.83;90.97;101532.88;5096516;28;20248;-65
2022/01/30 00:03:02;;;;;;;3.67;2.30;;;;;;;8.85;91.05;101520.41;5103377;28;20271;-66
2022/01/30 00:05:33;;;;;;;3.43;1.60;;;;;;;8.83;91.20;101519.66;5107141;28;20210;-65
2022/01/30 00:08:00;;;;;;;3.27;2.07;;;;;;;8.83;91.79;101514.38;5099601;28;20222;-66
2022/01/30 00:10:30;;;;;;;3.07;1.73;;;;;;;8.88;91.34;101506.97;5101355;28;20303;-65
2022/01/30 00:13:01;;;;;;;5.27;2.10;;;;;;;8.92;90.72;101519.84;5116882;27;20571;-65
2022/01/30 00:15:38;;;;;;;3.90;2.00;;;;;;;8.89;90.38;101514.75;5107465;27;20770;-65
2022/01/30 00:18:15;;;;;;;6.50;3.60;;;;;;;8.70;91.73;101518.88;5106746;27;20207;-67
2022/01/30 00:20:47;;;;;;;5.00;2.63;;;;;;;8.82;91.04;101518.81;5110298;27;20216;-66
2022/01/30 00:23:21;;;;;;;4.67;2.13;;;;;;;8.86;90.54;101528.22;5102922;28;20202;-65
2022/01/30 00:25:51;;;;;;;5.00;2.73;;;;;;;8.92;90.60;101519.00;5099216;28;20269;-66
2022/01/30 00:28:23;;;;;;;5.77;3.03;;;;;;;8.88;90.40;101517.53;5105493;27;20718;-65
2022/01/30 00:30:52;;;;;;;6.17;2.73;;;;;;;8.66;91.54;101531.47;5101974;28;20456;-66
2022/01/30 00:33:20;;;;;;;4.23;2.30;;;;;;;8.78;90.81;101537.69;5106612;28;20203;-66
2022/01/30 00:35:48;;;;;;;4.47;2.40;;;;;;;8.77;90.61;101546.56;5101838;27;20406;-66
2022/01/30 00:38:21;;;;;;;4.87;3.10;;;;;;;8.82;89.35;101544.41;5103337;28;20199;-66
2022/01/30 00:40:51;;;;;;;4.27;2.77;;;;;;;8.69;90.01;101541.81;5111442;27;20629;-65
2022/01/30 00:43:21;;;;;;;3.73;2.50;;;;;;;8.75;90.31;101538.72;5104968;28;20549;-66
2022/01/30 00:45:49;;;;;;;3.37;1.80;;;;;;;8.81;89.69;101535.63;5103389;27;20218;-66
2022/01/30 00:48:17;;;;;;;2.80;1.83;;;;;;;8.94;88.64;101540.91;5107849;27;20230;-66
2022/01/30 00:50:46;;;;;;;2.63;1.80;;;;;;;8.84;89.70;101535.44;5105032;27;20575;-65
2022/01/30 00:53:14;;;;;;;5.57;2.83;;;;;;;8.89;89.13;101521.84;5108348;27;20239;-66
2022/01/30 00:55:42;;;;;;;2.87;1.87;;;;;;;8.85;89.60;101517.75;5100279;28;20361;-66
2022/01/30 00:58:10;;;;;;;6.83;2.20;;;;;;;8.85;89.47;101517.75;5120768;27;20678;-66
2022/01/30 01:00:39;;;;;;;3.33;1.67;;;;;;;8.88;89.32;101517.53;5098738;27;20598;-65
2022/01/30 01:03:08;;;;;;;3.17;1.83;;;;;;;8.92;89.26;101519.00;5080414;28;20204;-65
2022/01/30 01:05:37;;;;;;;3.13;1.70;;;;;;;8.89;89.44;101529.78;5080370;28;20253;-65
2022/01/30 01:08:13;;;;;;;4.57;1.50;;;;;;;8.91;88.80;101530.53;5088678;28;20735;-66
2022/01/30 01:10:46;;;;;;;3.07;1.67;;;;;;;8.97;88.73;101535.41;5086074;28;20641;-65
2022/01/30 01:13:44;;;;;;;2.97;1.77;;;;;;;8.97;88.47;101543.31;5083516;28;20578;-66
2022/01/30 01:24:29;;;;;;;6.33;1.70;;;;;;;9.10;87.15;101551.19;5084748;28;20710;-66
2022/01/30 01:26:57;;;;;;;4.63;1.80;;;;;;;9.12;87.19;101555.44;5079165;28;20235;-66
2022/01/30 01:29:25;;;;;;;4.80;1.80;;;;;;;9.13;86.86;101554.47;5082146;28;20263;-66
2022/01/30 01:31:54;;;;;;;5.37;1.60;;;;;;;9.07;86.55;101555.75;5089641;28;20329;-66
2022/01/30 01:34:31;;;;;;;5.53;1.80;;;;;;;9.08;87.33;101546.00;5088044;28;20660;-65
2022/01/30 01:36:59;;;;;;;3.70;1.80;;;;;;;9.00;87.26;101551.88;5088503;28;20202;-66
2022/01/30 01:39:27;;;;;;;3.30;1.77;;;;;;;8.88;87.98;101560.69;5084019;28;20302;-66
2022/01/30 01:41:55;;;;;;;4.20;1.90;;;;;;;8.76;88.40;101560.72;5080054;28;20207;-66
2022/01/30 01:44:32;;;;;;;4.67;1.77;;;;;;;9.01;87.23;101563.31;5088665;28;20501;-66
2022/01/30 01:47:02;;;;;;;7.17;1.77;;;;;;;9.04;86.97;101563.94;5082840;28;20210;-66
2022/01/30 01:49:32;;;;;;;6.30;2.50;;;;;;;9.10;86.34;101554.69;5077882;28;20770;-66
2022/01/30 01:52:18;;;;;;;5.03;1.77;;;;;;;8.96;86.28;101562.81;5081588;28;20212;-66
2022/01/30 01:54:48;;;;;;;9.07;2.07;;;;;;;8.93;86.33;101557.72;5083821;28;20297;-66
2022/01/30 01:57:16;;;;;;;9.20;2.00;;;;;;;8.56;88.25;101560.34;5081823;28;20213;-65
2022/01/30 01:59:44;;;;;;;6.60;2.20;;;;;;;8.82;87.15;101555.84;5099941;27;20237;-65
2022/01/30 02:02:13;;;;;;;7.73;2.03;;;;;;;8.78;87.13;101558.84;5100813;28;20487;-64
2022/01/30 02:04:42;;;;;;;7.83;2.20;;;;;;;8.88;86.66;101562.50;5103401;27;20202;-64
2022/01/30 02:07:38;;;;;;;5.00;2.03;;;;;;;8.82;86.15;101552.34;5107416;27;20214;-66
2022/01/30 02:10:10;;;;;;;7.67;2.80;;;;;;;8.65;87.70;101554.41;5104242;27;20782;-66
2022/01/30 02:12:46;;;;;;;9.23;2.97;;;;;;;8.87;86.90;101548.44;5098839;28;20209;-65
2022/01/30 02:15:33;;;;;;;10.90;2.77;;;;;;;8.90;86.54;101547.34;5102605;27;20718;-66
2022/01/30 02:26:17;;;;;;;20.20;4.17;;;;;;;8.89;82.29;101566.81;5098392;27;20757;-65
2022/01/30 02:28:45;;;;;;;13.03;3.60;;;;;;;8.86;81.24;101561.78;5100055;28;20576;-66
2022/01/30 02:31:19;;;;;;;15.40;3.97;;;;;;;8.82;80.45;101568.22;5103669;27;20210;-66
2022/01/30 02:33:47;;;;;;;10.80;2.83;;;;;;;8.72;80.11;101560.09;5099659;27;20211;-66
2022/01/30 02:36:15;;;;;;;12.67;3.80;;;;;;;8.72;78.79;101560.09;5100009;27;20209;-66
2022/01/30 02:38:44;;;;;;;12.00;3.17;;;;;;;8.68;77.01;101559.50;5101134;28;20213;-65
2022/01/30 02:41:12;;;;;;;16.63;3.40;;;;;;;8.84;77.34;101561.03;5099503;28;20215;-66
2022/01/30 02:43:57;;;;;;;14.43;3.20;;;;;;;8.75;76.46;101562.53;5102686;28;20298;-66
2022/01/30 02:46:31;;;;;;;15.07;3.17;;;;;;;8.67;74.41;101559.59;5107689;28;20301;-65
2022/01/30 02:49:11;;;;;;;15.37;3.03;;;;;;;8.69;72.97;101568.28;5093726;27;20236;-65
2022/01/30 02:51:47;;;;;;;11.90;3.00;;;;;;;8.65;72.28;101567.63;5102711;28;20533;-65
2022/01/30 02:54:16;;;;;;;15.27;3.13;;;;;;;8.77;72.54;101578.31;5104179;27;20297;-65
2022/01/30 02:56:44;;;;;;;14.37;3.93;;;;;;;8.78;71.85;101580.84;5103177;27;20911;-65
2022/01/30 02:59:12;;;;;;;11.27;2.33;;;;;;;8.84;72.25;101588.31;5105451;27;20207;-65
2022/01/30 03:01:40;;;;;;;7.93;1.90;;;;;;;8.92;71.53;101593.06;5109107;27;20297;-66
2022/01/30 03:04:08;;;;;;;13.50;2.80;;;;;;;8.86;71.16;101598.81;5103003;28;20217;-66
2022/01/30 03:06:38;;;;;;;9.87;2.03;;;;;;;8.87;70.85;101606.63;5100659;27;20219;-66
2022/01/30 03:09:08;;;;;;;9.77;2.20;;;;;;;8.92;69.78;101604.50;5099585;28;20685;-67
2022/01/30 03:11:37;;;;;;;11.20;2.27;;;;;;;9.06;70.59;101609.63;5109790;27;20236;-64
2022/01/30 03:14:06;;;;;;;13.23;2.57;;;;;;;9.12;70.09;101605.72;5106960;27;20703;-65
2022/01/30 03:16:34;;;;;;;11.23;2.90;;;;;;;9.16;69.92;101598.38;5105718;28;20212;-65
2022/01/30 03:19:01;;;;;;;11.40;2.10;;;;;;;8.99;69.32;101604.88;5096987;27;20253;-65
2022/01/30 03:21:29;;;;;;;10.57;1.97;;;;;;;9.02;68.66;101594.94;5103560;28;20212;-65
2022/01/30 03:23:57;;;;;;;15.33;2.63;;;;;;;8.91;67.55;101609.88;5102350;27;20206;-65
2022/01/30 03:26:24;;;;;;;12.30;2.13;;;;;;;8.67;67.87;101618.63;5094020;28;20223;-65
2022/01/30 03:29:03;;;;;;;15.10;2.50;;;;;;;8.82;68.23;101618.47;5107096;28;20202;-65
2022/01/30 03:31:31;;;;;;;12.50;2.33;;;;;;;8.68;67.57;101616.81;5097770;28;20218;-65
2022/01/30 03:33:58;;;;;;;9.20;2.13;;;;;;;8.53;68.03;101620.56;5099531;28;20206;-66
2022/01/30 03:36:26;;;;;;;13.13;2.80;;;;;;;8.55;67.92;101622.09;5104301;28;20537;-65
2022/01/30 03:38:54;;;;;;;14.67;2.40;;;;;;;8.75;68.80;101622.50;5103226;28;20297;-65
2022/01/30 03:41:22;;;;;;;12.60;2.93;;;;;;;8.56;68.24;101631.72;5101646;28;20263;-65
2022/01/30 03:43:49;;;;;;;9.73;2.50;;;;;;;8.58;68.39;101635.13;5103204;28;20664;-65
2022/01/30 03:46:20;;;;;;;14.40;2.30;;;;;;;8.41;68.49;101632.81;5096726;28;20653;-65
2022/01/30 03:49:08;;;;;;;14.17;2.33;;;;;;;8.46;68.78;101633.31;5095419;28;20672;-65
2022/01/30 03:51:36;;;;;;;16.47;2.43;;;;;;;8.38;67.88;101634.81;5100785;28;20345;-66
2022/01/30 03:54:04;;;;;;;13.67;2.70;;;;;;;8.39;68.34;101637.34;5104396;28;20285;-66
2022/01/30 03:56:32;;;;;;;10.40;2.90;;;;;;;8.51;68.66;101631.22;5108064;28;20198;-66
2022/01/30 03:58:59;;;;;;;10.37;2.33;;;;;;;8.49;68.79;101638.41;5099842;28;20293;-66
2022/01/30 04:01:29;;;;;;;14.03;3.00;;;;;;;8.57;69.08;101638.72;5095943;28;20258;-66
2022/01/30 04:03:58;;;;;;;16.00;2.87;;;;;;;8.59;69.60;101650.03;5102047;28;20214;-66
2022/01/30 04:06:26;;;;;;;12.80;3.00;;;;;;;8.61;69.67;101648.16;5103925;28;20273;-66
2022/01/30 04:08:54;;;;;;;12.23;2.23;;;;;;;8.72;69.07;101651.81;5109340;28;20202;-66
2022/01/30 04:11:22;;;;;;;13.87;2.37;;;;;;;8.85;69.87;101656.16;5103637;28;20329;-66
2022/01/30 04:13:50;;;;;;;16.07;3.40;;;;;;;8.86;68.55;101659.63;5098383;28;20238;-66
2022/01/30 04:16:18;;;;;;;8.27;2.43;;;;;;;8.75;68.83;101659.53;5097568;28;20252;-66
2022/01/30 04:18:48;;;;;;;13.27;2.57;;;;;;;8.77;69.34;101660.28;5104739;28;20299;-66
2022/01/30 04:21:16;;;;;;;10.80;2.40;;;;;;;8.82;69.39;101664.28;5099577;28;20281;-66
2022/01/30 04:23:44;;;;;;;14.90;3.40;;;;;;;8.83;69.89;101673.06;5105123;28;20213;-66
2022/01/30 04:26:11;;;;;;;12.10;2.43;;;;;;;8.79;69.60;101674.25;5096640;28;20227;-66
2022/01/30 04:28:40;;;;;;;13.67;2.83;;;;;;;8.91;69.65;101673.38;5098765;28;20321;-66
2022/01/30 04:31:08;;;;;;;16.00;3.00;;;;;;;8.86;69.98;101673.72;5103928;28;20773;-66
2022/01/30 04:33:36;;;;;;;14.40;2.83;;;;;;;8.89;70.41;101672.63;5104837;28;20259;-66
2022/01/30 04:36:10;;;;;;;10.47;2.13;;;;;;;8.89;69.68;101672.63;5101640;28;20566;-66
2022/01/30 04:38:52;;;;;;;20.07;3.30;;;;;;;8.87;69.48;101669.28;5102871;28;20324;-66
2022/01/30 04:41:39;;;;;;;15.00;2.63;;;;;;;8.73;68.82;101672.03;5104912;28;20581;-66
2022/01/30 04:52:49;;;;;;;9.67;2.40;;;;;;;8.53;68.77;101670.78;5108088;28;20204;-65
2022/01/30 04:58:14;;;;;;;11.53;3.03;;;;;;;8.30;67.54;101680.22;5107123;28;20317;-65
2022/01/30 05:00:59;;;;;;;16.73;3.23;;;;;;;8.35;67.29;101687.91;5099704;28;20313;-65
2022/01/30 05:06:15;;;;;;;13.27;2.40;;;;;;;8.26;66.20;101694.63;5100265;27;20209;-65
2022/01/30 05:08:45;;;;;;;10.13;2.27;;;;;;;8.40;66.52;101702.47;5110786;27;20675;-65
2022/01/30 05:11:12;;;;;;;10.63;2.33;;;;;;;8.36;65.72;101705.41;5106449;28;20305;-65
2022/01/30 05:13:46;;;;;;;10.27;2.33;;;;;;;8.27;65.52;101705.06;5100819;28;20652;-65
2022/01/30 05:16:14;;;;;;;15.03;2.43;;;;;;;8.21;65.69;101704.63;5104160;27;20210;-66
2022/01/30 05:18:42;;;;;;;10.73;2.20;;;;;;;8.24;64.79;101707.09;5106630;27;20206;-66
2022/01/30 05:21:10;;;;;;;15.27;2.17;;;;;;;7.87;64.00;101701.59;5109362;27;20266;-65
2022/01/30 05:23:45;;;;;;;10.13;2.40;;;;;;;8.05;62.63;101699.53;5098091;28;20317;-65
2022/01/30 05:26:14;;;;;;;8.10;2.17;;;;;;;8.06;62.76;101703.88;5106848;28;20659;-66
2022/01/30 05:28:42;;;;;;;14.20;2.23;;;;;;;7.85;62.32;101716.69;5109114;27;20593;-65
2022/01/30 05:31:11;;;;;;;15.53;2.57;;;;;;;7.71;61.41;101714.13;5107777;27;20229;-65
2022/01/30 05:33:40;;;;;;;13.90;2.00;;;;;;;7.90;60.59;101719.06;5108487;28;20662;-65
2022/01/30 05:36:08;;;;;;;16.40;2.27;;;;;;;7.62;59.91;101721.78;5112409;27;20297;-66
2022/01/30 05:38:37;;;;;;;23.50;2.63;;;;;;;7.76;60.63;101724.38;5110884;28;20219;-66
2022/01/30 05:41:06;;;;;;;20.27;2.67;;;;;;;7.74;59.83;101740.31;5108325;27;20290;-66
2022/01/30 05:43:35;;;;;;;10.40;2.50;;;;;;;7.66;59.00;101734.66;5104916;28;20655;-65
2022/01/30 05:46:11;;;;;;;14.60;2.97;;;;;;;7.60;58.86;101748.28;5106601;28;20209;-65
2022/01/30 05:48:40;;;;;;;13.03;1.93;;;;;;;7.80;59.36;101750.50;5106388;28;20554;-65
2022/01/30 05:51:07;;;;;;;14.50;2.20;;;;;;;7.92;59.68;101764.69;5102393;28;20268;-66
2022/01/30 05:53:35;;;;;;;13.03;2.10;;;;;;;7.77;59.69;101782.38;5106359;28;20579;-66
2022/01/30 05:56:03;;;;;;;13.40;2.30;;;;;;;7.81;60.35;101788.31;5105186;28;20209;-66
2022/01/30 05:58:32;;;;;;;12.83;2.23;;;;;;;7.98;60.09;101787.22;5114178;27;20210;-66
2022/01/30 06:01:00;;;;;;;15.83;3.40;;;;;;;8.17;60.19;101791.22;5093235;28;20273;-66
2022/01/30 06:03:29;;;;;;;15.17;2.33;;;;;;;8.22;60.40;101798.81;5084259;28;20257;-66
2022/01/30 06:05:57;;;;;;;13.47;2.40;;;;;;;8.26;60.11;101795.91;5084810;28;20206;-66
2022/01/30 06:08:40;;;;;;;13.67;2.10;;;;;;;8.15;60.10;101797.53;5083964;28;20298;-66
2022/01/30 06:11:08;;;;;;;12.10;2.30;;;;;;;7.71;60.80;101805.69;5082195;28;20244;-65
2022/01/30 06:13:38;;;;;;;16.30;2.50;;;;;;;8.03;61.25;101799.19;5080076;28;20234;-65
2022/01/30 06:16:06;;;;;;;16.27;2.20;;;;;;;8.08;60.37;101794.47;5088305;28;20221;-65
2022/01/30 06:18:34;;;;;;;14.50;2.70;;;;;;;8.19;61.12;101799.00;5079425;28;20241;-65
2022/01/30 06:21:02;;;;;;;11.87;2.30;;;;;;;8.12;60.35;101788.00;5079203;28;20312;-65
2022/01/30 06:23:30;;;;;;;13.83;2.60;;;;;;;8.15;60.37;101803.66;5081528;28;20254;-65
2022/01/30 06:25:58;;;;;;;13.60;2.03;;;;;;;8.00;60.34;101807.31;5073439;28;20262;-65
2022/01/30 06:28:25;;;;;;;12.03;2.87;;;;;;;7.97;60.23;101798.72;5086389;28;20214;-65
2022/01/30 06:30:54;;;;;;;12.00;2.53;;;;;;;7.96;60.85;101808.44;5082910;28;20309;-65
2022/01/30 06:33:22;;;;;;;14.80;2.60;;;;;;;8.20;60.17;101800.72;5079927;28;20218;-65
2022/01/30 06:35:50;;;;;;;10.50;2.10;;;;;;;7.94;60.66;101800.63;5078014;28;20317;-65
2022/01/30 06:38:17;;;;;;;9.63;2.30;;;;;;;7.91;60.64;101803.47;5083384;28;20555;-66
2022/01/30 06:40:45;;;;;;;15.50;2.17;;;;;;;8.00;60.69;101817.03;5069662;28;20310;-66
2022/01/30 06:43:13;;;;;;;20.50;2.93;;;;;;;7.92;61.01;101807.78;5083856;28;20220;-66
2022/01/30 06:45:42;;;;;;;12.73;2.57;;;;;;;7.91;60.92;101806.13;5082585;28;20206;-66
2022/01/30 06:48:11;;;;;;;12.40;2.47;;;;;;;7.84;61.43;101812.72;5075986;28;20250;-67
2022/01/30 06:50:39;;;;;;;13.83;3.17;;;;;;;7.91;61.06;101819.31;5085847;28;20250;-66
2022/01/30 06:53:06;;;;;;;15.80;2.77;;;;;;;7.70;61.14;101823.31;5082990;28;20712;-64
2022/01/30 06:55:34;;;;;;;13.47;3.23;;;;;;;7.73;61.41;101836.34;5080178;28;20230;-65
2022/01/30 06:58:02;;;;;;;20.67;4.23;;;;;;;7.91;61.04;101831.69;5084010;28;20303;-67
2022/01/30 07:00:30;;;;;;;15.63;4.00;;;;;;;8.07;60.64;101820.97;5097607;28;20244;-67
2022/01/30 07:02:58;;;;;;;15.37;3.03;;;;;;;8.09;60.77;101825.19;5105650;28;20603;-67
2022/01/30 07:05:27;;;;;;;12.73;3.13;;;;;;;7.92;60.58;101834.19;5109192;28;20212;-67
2022/01/30 07:07:55;;;;;;;16.60;2.90;;;;;;;7.90;59.87;101828.19;5108056;28;20303;-67
2022/01/30 07:10:25;;;;;;;11.57;2.13;;;;;;;8.00;60.06;101827.59;5107262;28;20221;-67
2022/01/30 07:12:53;;;;;;;13.57;2.30;;;;;;;7.97;59.86;101830.44;5107201;28;20249;-67
2022/01/30 07:15:20;;;;;;;16.27;2.40;;;;;;;8.03;59.60;101835.31;5101808;28;20321;-67
2022/01/30 07:17:48;;;;;;;12.80;2.90;;;;;;;7.90;59.97;101829.97;5108445;28;20209;-67
2022/01/30 07:20:16;;;;;;;15.40;3.50;;;;;;;7.98;60.00;101830.34;5096959;28;20663;-68
2022/01/30 07:22:45;;;;;;;13.70;2.53;;;;;;;8.16;59.79;101836.22;5098199;28;20666;-68
2022/01/30 07:25:13;;;;;;;15.07;2.53;;;;;;;7.80;59.95;101845.56;5107218;28;20254;-68
2022/01/30 07:27:42;;;;;;;13.50;2.40;;;;;;;8.04;59.40;101834.38;5095106;28;20289;-67
2022/01/30 07:30:10;;;;;;;14.83;3.10;;;;;;;7.92;58.98;101839.47;5108134;28;20475;-67
2022/01/30 07:32:38;;;;;;;16.13;2.40;;;;;;;7.94;58.92;101837.59;5106790;28;20222;-67
2022/01/30 07:35:07;;;;;;;11.57;2.47;;;;;;;7.97;59.18;101846.28;5109556;28;20672;-67
2022/01/30 07:37:35;;;;;;;11.73;2.43;;;;;;;8.05;58.91;101844.00;5108379;28;20491;-67
2022/01/30 07:40:06;;;;;;;17.93;2.93;;;;;;;7.92;58.56;101842.13;5092949;28;20224;-67
2022/01/30 07:42:34;;;;;;;10.17;2.23;;;;;;;8.02;58.49;101845.03;5102414;28;20194;-67
2022/01/30 07:45:04;;;;;;;17.20;2.70;;;;;;;7.95;58.89;101851.66;5100159;28;20294;-67
2022/01/30 07:47:32;;;;;;;15.77;3.03;;;;;;;8.10;59.04;101861.22;5098077;28;20321;-68
2022/01/30 07:49:59;;;;;;;13.97;3.07;;;;;;;8.11;58.29;101876.16;5099263;28;20220;-67
2022/01/30 07:52:27;;;;;;;13.37;4.03;;;;;;;8.13;58.38;101868.13;5106925;28;20254;-68
2022/01/30 07:54:55;;;;;;;12.90;2.63;;;;;;;8.04;58.35;101876.63;5108877;28;20206;-68
2022/01/30 07:57:24;;;;;;;15.47;2.77;;;;;;;8.13;58.53;101874.25;5099705;28;20258;-67
2022/01/30 07:59:51;;;;;;;11.50;2.83;;;;;;;7.92;58.01;101883.53;5096809;28;20244;-69
2022/01/30 08:02:19;;;;;;;12.00;2.37;;;;;;;8.08;58.91;101880.78;5101111;28;20226;-68
2022/01/30 08:04:47;;;;;;;13.37;2.50;;;;;;;7.94;58.38;101887.78;5097958;28;20217;-68
2022/01/30 08:07:15;;;;;;;22.27;3.57;;;;;;;8.15;58.69;101892.66;5098196;28;20637;-67
2022/01/30 08:09:43;;;;;;;12.27;1.93;;;;;;;8.07;58.35;101893.16;5099360;28;20249;-67
2022/01/30 08:12:11;;;;;;;16.53;3.10;;;;;;;8.28;57.84;101888.28;5099150;28;20239;-68
2022/01/30 08:14:40;;;;;;;12.27;3.53;;;;;;;8.28;57.96;101899.69;5103435;28;20237;-69
2022/01/30 08:17:09;;;;;;;10.43;2.17;;;;;;;8.13;58.46;101889.25;5101500;28;20655;-68
2022/01/30 08:19:37;;;;;;;14.60;2.20;;;;;;;8.31;58.59;101890.75;5108103;28;20313;-69
2022/01/30 08:22:07;;;;;;;10.63;2.50;;;;;;;8.24;57.51;101894.72;5100393;28;20237;-68
2022/01/30 08:24:35;;;;;;;11.83;3.00;;;;;;;8.35;58.01;101891.41;5097384;28;21568;-67
2022/01/30 08:27:03;;;;;;;12.07;2.03;;;;;;;8.36;58.09;101891.28;5096686;28;20765;-68
2022/01/30 08:29:30;;;;;;;14.80;2.33;;;;;;;8.32;57.77;101888.97;5102574;28;20450;-68
2022/01/30 08:32:00;;;;;;;16.20;2.70;;;;;;;8.33;57.65;101891.50;5099531;28;20211;-67
2022/01/30 08:34:27;;;;;;;13.90;2.27;;;;;;;8.40;57.75;101892.81;5100706;28;20215;-67
2022/01/30 08:36:55;;;;;;;12.87;2.83;;;;;;;8.36;58.51;101891.28;5102089;28;20208;-67
2022/01/30 08:39:23;;;;;;;15.03;2.83;;;;;;;8.50;58.31;101896.56;5108689;28;20211;-68
2022/01/30 08:41:51;;;;;;;14.97;2.80;;;;;;;8.59;58.23;101893.31;5114084;28;20685;-68
2022/01/30 08:44:18;;;;;;;12.40;2.60;;;;;;;8.65;58.19;101899.97;5098493;28;20210;-68
2022/01/30 08:46:46;;;;;;;16.70;2.43;;;;;;;8.54;57.89;101891.91;5105285;28;20206;-68
2022/01/30 08:49:15;;;;;;;11.27;2.50;;;;;;;8.50;58.26;101887.78;5108671;27;20578;-67
2022/01/30 08:51:43;;;;;;;15.13;3.13;;;;;;;8.44;57.47;101891.69;5103145;27;20206;-67
2022/01/30 08:54:11;;;;;;;10.10;2.37;;;;;;;8.39;57.19;101883.19;5109771;28;20238;-67
2022/01/30 08:56:38;;;;;;;13.87;2.13;;;;;;;8.41;57.98;101891.88;5106827;28;20229;-67
2022/01/30 08:59:06;;;;;;;8.40;1.93;;;;;;;8.49;57.46;101892.22;5106846;27;20217;-68
2022/01/30 09:01:34;;;;;;;11.80;2.33;;;;;;;8.56;57.32;101876.78;5107098;28;20309;-68
2022/01/30 09:04:03;;;;;;;9.87;2.30;;;;;;;8.62;57.53;101879.00;5106719;27;20205;-68
2022/01/30 09:06:32;;;;;;;12.40;2.00;;;;;;;8.50;58.05;101880.69;5111178;28;20211;-68
2022/01/30 09:09:03;;;;;;;10.90;2.77;;;;;;;8.59;57.27;101881.88;5103263;28;20211;-68
2022/01/30 09:11:30;;;;;;;9.60;3.40;;;;;;;8.49;57.75;101884.28;5107386;28;20214;-70
2022/01/30 09:13:59;;;;;;;13.47;2.77;;;;;;;8.78;57.75;101877.06;5101954;28;20526;-63
2022/01/30 09:16:26;;;;;;;10.30;2.07;;;;;;;8.87;57.80;101879.09;5111454;27;20298;-62
2022/01/30 09:18:56;;;;;;;13.83;1.93;;;;;;;8.89;56.92;101881.63;5113961;28;20270;-63
2022/01/30 09:21:24;;;;;;;11.37;2.40;;;;;;;8.82;59.83;101872.41;5110990;27;20244;-63
2022/01/30 09:23:53;;;;;;;10.97;1.90;;;;;;;8.70;56.18;101867.94;5099326;28;20660;-63
2022/01/30 09:26:21;;;;;;;9.20;1.83;;;;;;;8.65;56.51;101871.75;5104907;28;20320;-64
2022/01/30 09:28:49;;;;;;;9.10;1.97;;;;;;;8.88;55.88;101877.31;5111217;28;20212;-63
2022/01/30 09:31:17;;;;;;;9.00;1.77;;;;;;;8.80;56.06;101871.66;5111474;28;20651;-62
2022/01/30 09:33:45;;;;;;;8.07;1.60;;;;;;;8.66;54.96;101862.84;5100059;27;20241;-63
2022/01/30 09:36:13;;;;;;;12.47;2.10;;;;;;;8.86;54.37;101879.19;5103644;27;20559;-63
2022/01/30 09:38:46;;;;;;;6.47;1.67;;;;;;;8.89;55.57;101877.19;5106741;28;20674;-61
2022/01/30 09:41:16;;;;;;;10.30;2.27;;;;;;;8.97;54.62;101866.09;5103284;27;20277;-60
2022/01/30 09:43:45;;;;;;;8.13;2.10;;;;;;;8.93;54.89;101869.91;5112496;27;20204;-61
2022/01/30 09:46:16;;;;;;;16.37;2.27;;;;;;;9.06;54.17;101865.44;5114882;27;20262;-63
2022/01/30 09:48:44;;;;;;;11.80;1.53;;;;;;;9.17;54.10;101867.38;5109651;27;20235;-62
2022/01/30 09:51:13;;;;;;;10.10;1.63;;;;;;;9.40;53.22;101875.44;5100082;28;20530;-61
2022/01/30 09:53:41;;;;;;;11.23;2.07;;;;;;;9.36;53.71;101887.19;5104885;27;20593;-67
2022/01/30 09:56:09;;;;;;;10.57;1.73;;;;;;;9.48;54.26;101884.66;5115160;27;20205;-61
2022/01/30 09:58:38;;;;;;;7.17;1.43;;;;;;;9.48;54.56;101884.66;5109752;28;20216;-63
2022/01/30 10:01:06;;;;;;;9.87;1.73;;;;;;;10.06;52.88;101882.22;5106808;28;20237;-62
2022/01/30 10:03:34;;;;;;;7.60;1.53;;;;;;;10.41;52.92;101879.66;5106217;27;20215;-61
2022/01/30 10:06:07;;;;;;;9.07;1.63;;;;;;;10.60;50.84;101881.81;5109938;28;20202;-64
2022/01/30 10:08:41;;;;;;;6.90;1.40;;;;;;;10.53;51.08;101883.22;5105820;28;20292;-61
2022/01/30 10:11:27;;;;;;;8.07;2.00;;;;;;;10.72;50.49;101888.03;5096537;28;20289;-61
2022/01/30 10:14:07;;;;;;;6.33;1.87;;;;;;;10.92;50.34;101888.19;5110136;27;20321;-61
2022/01/30 10:16:42;;;;;;;6.03;1.70;;;;;;;10.86;50.92;101893.13;5101533;28;20217;-64
2022/01/30 10:19:12;;;;;;;11.00;2.33;;;;;;;10.77;49.04;101891.16;5103077;27;20221;-61
2022/01/30 10:21:40;;;;;;;18.57;2.83;;;;;;;14.08;44.46;101892.25;5099291;28;20211;-61
2022/01/30 10:24:22;;;;;;;14.33;3.30;;;;;;;17.50;37.19;101886.75;5107060;27;20194;-61
2022/01/30 10:26:50;;;;;;;8.63;1.60;;;;;;;18.02;35.01;101881.34;5105210;28;20222;-65
2022/01/30 10:29:21;;;;;;;5.93;2.03;;;;;;;14.98;40.09;101890.28;5101324;27;20223;-65
2022/01/30 10:32:07;;;;;;;8.43;1.60;;;;;;;21.18;30.45;101876.94;5105012;27;20207;-64
2022/01/30 10:34:38;;;;;;;8.43;2.03;;;;;;;21.73;28.37;101874.59;5110353;27;20317;-65
2022/01/30 10:37:18;;;;;;;9.10;2.10;;;;;;;17.80;33.46;101871.16;5107684;28;20290;-64
2022/01/30 10:39:54;;;;;;;6.10;1.90;;;;;;;21.76;28.43;101873.41;5110082;27;20820;-64
2022/01/30 10:42:32;;;;;;;5.53;1.80;;;;;;;21.82;27.72;101867.25;5109222;27;20365;-64
2022/01/30 10:45:08;;;;;;;7.13;1.92;;;;;;;23.39;25.53;101850.94;5101331;28;20292;-64
2022/01/30 10:47:37;;;;;;;10.55;1.85;;;;;;;24.09;25.34;101846.28;5106131;27;20206;-64
2022/01/30 10:50:09;;;;;;;6.15;2.10;;;;;;;19.71;30.02;101843.84;5105770;28;20214;-65
2022/01/30 10:52:58;;;;;;;5.97;2.13;;;;;;;16.63;34.25;101857.28;5104631;27;20224;-64
2022/01/30 10:55:34;;;;;;;7.57;1.92;;;;;;;15.02;37.01;101860.47;5109927;27;20217;-65
2022/01/30 10:58:02;;;;;;;6.43;1.92;;;;;;;17.63;33.11;101859.53;5110593;28;20682;-65
2022/01/30 11:00:40;;;;;;;8.27;1.77;;;;;;;17.46;33.69;101855.91;5103649;28;20793;-65
2022/01/30 11:03:09;;;;;;;4.55;1.35;;;;;;;17.55;34.28;101862.97;5106669;28;20205;-64
2022/01/30 11:05:59;;;;;;;6.97;1.95;;;;;;;17.39;33.20;101859.38;5103763;28;20218;-64
2022/01/30 11:08:29;;;;;;;10.30;2.13;;;;;;;18.19;32.17;101856.22;5105692;28;20629;-64
2022/01/30 11:11:04;;;;;;;7.68;1.55;;;;;;;16.09;35.33;101861.78;5106249;28;20313;-64
2022/01/30 11:13:48;;;;;;;4.30;1.65;;;;;;;14.57;37.67;101865.56;5097681;28;20246;-65
2022/01/30 11:19:03;;;;;;;7.60;1.73;;;;;;;13.48;40.00;101886.00;5097355;27;20212;-60
2022/01/30 11:21:31;;;;;;;10.32;1.88;;;;;;;12.87;41.11;101877.88;5099495;28;20711;-61
2022/01/30 11:24:00;;;;;;;8.53;1.70;;;;;;;12.73;40.98;101876.41;5104574;27;20570;-62
2022/01/30 11:26:29;;;;;;;10.20;1.77;;;;;;;12.04;43.29;101878.56;5112613;27;20226;-62
2022/01/30 11:28:58;;;;;;;7.33;2.10;;;;;;;13.68;41.00;101869.13;5102615;28;20210;-62
2022/01/30 11:31:27;;;;;;;7.30;2.10;;;;;;;12.86;42.17;101876.19;5097980;28;20298;-63
2022/01/30 11:33:58;;;;;;;8.10;1.57;;;;;;;13.38;40.77;101869.13;5097781;28;20239;-63
2022/01/30 11:36:26;;;;;;;6.50;1.83;;;;;;;12.77;42.01;101879.63;5105338;27;20273;-64
2022/01/30 11:38:54;;;;;;;8.60;2.30;;;;;;;12.73;42.99;101878.22;5102031;28;20203;-64
2022/01/30 11:41:22;;;;;;;14.57;2.10;;;;;;;12.64;42.33;101877.16;5105533;28;20204;-64
2022/01/30 11:44:24;;;;;;;10.60;1.80;;;;;;;13.66;41.40;101873.75;5097328;28;20278;-63
2022/01/30 11:47:22;;;;;;;9.02;2.40;;;;;;;12.88;42.23;101879.56;5075858;28;20434;-65
2022/01/30 11:50:04;;;;;;;10.70;2.42;;;;;;;13.54;42.69;101867.66;5099385;28;20463;-67
2022/01/30 11:52:51;;;;;;;9.67;1.93;;;;;;;12.89;43.39;101864.44;5101177;28;20232;-66
2022/01/30 11:55:53;;;;;;;11.87;2.10;;;;;;;12.69;44.24;101876.75;5096386;28;20634;-66
2022/01/30 11:58:54;;;;;;;7.20;1.77;;;;;;;12.36;44.69;101886.56;5106784;28;20233;-66
2022/01/30 12:01:36;;;;;;;8.70;1.90;;;;;;;13.69;41.66;101873.50;5092458;28;20230;-66
2022/01/30 12:04:11;;;;;;;8.00;1.90;;;;;;;14.11;41.24;101868.00;5085246;28;20207;-68
2022/01/30 12:06:41;;;;;;;7.73;2.00;;;;;;;15.11;39.34;101869.44;5095581;28;20204;-68
2022/01/30 12:09:22;;;;;;;8.37;2.47;;;;;;;15.15;38.54;101868.16;5098240;28;20271;-69
2022/01/30 12:11:55;;;;;;;9.07;2.27;;;;;;;15.22;38.15;101871.94;5086605;28;20264;-66
2022/01/30 12:14:54;;;;;;;8.98;1.70;;;;;;;15.38;39.00;101869.53;5087059;28;20318;-67
2022/01/30 12:17:49;;;;;;;9.48;1.88;;;;;;;14.64;37.94;101882.69;5093454;28;20224;-64